sensor_id;sensor_type;location;lat;lon;timestamp;pressure;altitude;pressure_sealevel;temperature;humidity
20156;BME280;10238;49.556;10.956;2022-09-09T00:00:12;97960.50;;;12.89;100.00
20156;BME280;10238;49.556;10.956;2022-09-09T00:03:08;97971.53;;;12.86;100.00
20156;BME280;10238;49.556;10.956;2022-09-09T00:06:09;97962.69;;;12.85;100.00
20156;BME280;10238;49.556;10.956;2022-09-09T00:09:12;97959.72;;;12.80;100.00
20156;BME280;10238;49.556;10.956;2022-09-09T00:12:10;97960.25;;;12.76;100.00
20156;BME280;10238;49.556;10.956;2022-09-09T00:15:11;97963.28;;;12.73;100.00
20156;BME280;10238;49.556;10.956;2022-09-09T00:18:13;97951.97;;;12.71;100.00
20156;BME280;10238;49.556;10.956;2022-09-09T00:21:08;97953.16;;;12.68;100.00
20156;BME280;10238;49.556;10.956;2022-09-09T00:24:10;97966.00;;;12.65;100.00
20156;BME280;10238;49.556;10.956;2022-09-09T00:27:08;97962.69;;;12.63;100.00
20156;BME280;10238;49.556;10.956;2022-09-09T00:30:16;97961.19;;;12.60;100.00
20156;BME280;10238;49.556;10.956;2022-09-09T00:33:12;97960.72;;;12.57;100.00
20156;BME280;10238;49.556;10.956;2022-09-09T00:36:13;97962.56;;;12.56;100.00
20156;BME280;10238;49.556;10.956;2022-09-09T00:39:05;97958.41;;;12.54;100.00
20156;BME280;10238;49.556;10.956;2022-09-09T00:42:14;97952.41;;;12.52;100.00
20156;BME280;10238;49.556;10.956;2022-09-09T00:45:26;97951.78;;;12.50;100.00
20156;BME280;10238;49.556;10.956;2022-09-09T00:48:20;97956.09;;;12.51;100.00
20156;BME280;10238;49.556;10.956;2022-09-09T00:51:20;97955.44;;;12.49;100.00
20156;BME280;10238;49.556;10.956;2022-09-09T00:54:33;97957.47;;;12.47;100.00
20156;BME280;10238;49.556;10.956;2022-09-09T00:57:28;97961.78;;;12.48;100.00
20156;BME280;10238;49.556;10.956;2022-09-09T01:00:23;97954.97;;;12.45;100.00
20156;BME280;10238;49.556;10.956;2022-09-09T01:03:25;97959.81;;;12.42;100.00
20156;BME280;10238;49.556;10.956;2022-09-09T01:06:26;97945.47;;;12.43;100.00
20156;BME280;10238;49.556;10.956;2022-09-09T01:09:27;97952.84;;;12.41;100.00
20156;BME280;10238;49.556;10.956;2022-09-09T01:12:30;97956.47;;;12.40;100.00
20156;BME280;10238;49.556;10.956;2022-09-09T01:15:28;97954.84;;;12.39;100.00
20156;BME280;10238;49.556;10.956;2022-09-09T01:18:22;97963.84;;;12.38;100.00
20156;BME280;10238;49.556;10.956;2022-09-09T01:21:27;97960.50;;;12.36;100.00
20156;BME280;10238;49.556;10.956;2022-09-09T01:24:33;97962.53;;;12.34;100.00
20156;BME280;10238;49.556;10.956;2022-09-09T01:27:28;97970.22;;;12.29;100.00
20156;BME280;10238;49.556;10.956;2022-09-09T01:30:19;97966.88;;;12.27;100.00
20156;BME280;10238;49.556;10.956;2022-09-09T01:33:14;97959.06;;;12.25;100.00
20156;BME280;10238;49.556;10.956;2022-09-09T01:36:14;97967.06;;;12.25;100.00
20156;BME280;10238;49.556;10.956;2022-09-09T01:39:09;97966.59;;;12.22;100.00
20156;BME280;10238;49.556;10.956;2022-09-09T01:41:59;97970.28;;;12.21;100.00
20156;BME280;10238;49.556;10.956;2022-09-09T01:44:50;97962.75;;;12.24;100.00
20156;BME280;10238;49.556;10.956;2022-09-09T01:47:44;97963.25;;;12.28;100.00
20156;BME280;10238;49.556;10.956;2022-09-09T01:50:34;97968.75;;;12.26;100.00
20156;BME280;10238;49.556;10.956;2022-09-09T01:53:25;97971.88;;;12.30;100.00
20156;BME280;10238;49.556;10.956;2022-09-09T01:56:33;97965.91;;;12.28;100.00
20156;BME280;10238;49.556;10.956;2022-09-09T01:59:51;97959.56;;;12.29;100.00
20156;BME280;10238;49.556;10.956;2022-09-09T02:02:56;97967.38;;;12.30;100.00
20156;BME280;10238;49.556;10.956;2022-09-09T02:05:59;97952.41;;;12.29;100.00
20156;BME280;10238;49.556;10.956;2022-09-09T02:08:55;97952.22;;;12.31;100.00
20156;BME280;10238;49.556;10.956;2022-09-09T02:11:49;97942.88;;;12.35;100.00
20156;BME280;10238;49.556;10.956;2022-09-09T02:14:52;97955.19;;;12.36;100.00
20156;BME280;10238;49.556;10.956;2022-09-09T02:17:49;97954.84;;;12.39;100.00
20156;BME280;10238;49.556;10.956;2022-09-09T02:20:42;97958.16;;;12.41;100.00
20156;BME280;10238;49.556;10.956;2022-09-09T02:23:35;97956.13;;;12.43;100.00
20156;BME280;10238;49.556;10.956;2022-09-09T02:26:27;97955.84;;;12.38;100.00
20156;BME280;10238;49.556;10.956;2022-09-09T02:29:23;97957.31;;;12.40;100.00
20156;BME280;10238;49.556;10.956;2022-09-09T02:32:20;97957.69;;;12.37;100.00
20156;BME280;10238;49.556;10.956;2022-09-09T02:35:15;97950.81;;;12.43;100.00
20156;BME280;10238;49.556;10.956;2022-09-09T02:38:12;97961.81;;;12.40;100.00
20156;BME280;10238;49.556;10.956;2022-09-09T02:41:03;97958.63;;;12.44;100.00
20156;BME280;10238;49.556;10.956;2022-09-09T02:43:52;97966.50;;;12.38;100.00
20156;BME280;10238;49.556;10.956;2022-09-09T02:50:22;97957.81;;;12.44;100.00
20156;BME280;10238;49.556;10.956;2022-09-09T02:53:17;97958.81;;;12.43;100.00
20156;BME280;10238;49.556;10.956;2022-09-09T02:56:18;97959.13;;;12.48;100.00
20156;BME280;10238;49.556;10.956;2022-09-09T02:59:09;97950.78;;;12.51;100.00
20156;BME280;10238;49.556;10.956;2022-09-09T03:02:00;97953.09;;;12.54;100.00
20156;BME280;10238;49.556;10.956;2022-09-09T03:04:52;97962.56;;;12.56;100.00
20156;BME280;10238;49.556;10.956;2022-09-09T03:07:43;97955.09;;;12.52;100.00
20156;BME280;10238;49.556;10.956;2022-09-09T03:10:36;97953.09;;;12.54;100.00
20156;BME280;10238;49.556;10.956;2022-09-09T03:13:26;97956.69;;;12.61;100.00
20156;BME280;10238;49.556;10.956;2022-09-09T03:16:17;97952.72;;;12.57;100.00
20156;BME280;10238;49.556;10.956;2022-09-09T03:19:08;97946.56;;;12.56;100.00
20156;BME280;10238;49.556;10.956;2022-09-09T03:21:57;97955.50;;;12.63;100.00
20156;BME280;10238;49.556;10.956;2022-09-09T03:24:49;97965.53;;;12.61;100.00
20156;BME280;10238;49.556;10.956;2022-09-09T03:27:39;97949.38;;;12.63;100.00
20156;BME280;10238;49.556;10.956;2022-09-09T03:30:29;97949.72;;;12.60;100.00
20156;BME280;10238;49.556;10.956;2022-09-09T03:33:19;97950.16;;;12.63;100.00
20156;BME280;10238;49.556;10.956;2022-09-09T03:36:08;97958.16;;;12.63;100.00
20156;BME280;10238;49.556;10.956;2022-09-09T03:38:58;97960.31;;;12.68;100.00
20156;BME280;10238;49.556;10.956;2022-09-09T03:41:50;97960.66;;;12.65;100.00
20156;BME280;10238;49.556;10.956;2022-09-09T03:44:40;97948.00;;;12.67;100.00
20156;BME280;10238;49.556;10.956;2022-09-09T03:47:30;97959.16;;;12.70;100.00
20156;BME280;10238;49.556;10.956;2022-09-09T03:50:19;97964.13;;;12.73;100.00
20156;BME280;10238;49.556;10.956;2022-09-09T03:53:08;97971.31;;;12.65;100.00
20156;BME280;10238;49.556;10.956;2022-09-09T03:55:59;97959.16;;;12.70;100.00
20156;BME280;10238;49.556;10.956;2022-09-09T03:58:51;97956.31;;;12.72;100.00
20156;BME280;10238;49.556;10.956;2022-09-09T04:01:42;97951.78;;;12.72;100.00
20156;BME280;10238;49.556;10.956;2022-09-09T04:04:33;97949.59;;;12.76;100.00
20156;BME280;10238;49.556;10.956;2022-09-09T04:07:23;97956.53;;;12.85;100.00
20156;BME280;10238;49.556;10.956;2022-09-09T04:10:13;97943.38;;;12.83;100.00
20156;BME280;10238;49.556;10.956;2022-09-09T04:13:06;97952.53;;;12.81;100.00
20156;BME280;10238;49.556;10.956;2022-09-09T04:16:00;97961.56;;;12.80;100.00
20156;BME280;10238;49.556;10.956;2022-09-09T04:18:50;97954.84;;;12.84;100.00
20156;BME280;10238;49.556;10.956;2022-09-09T04:21:42;97952.84;;;12.86;100.00
20156;BME280;10238;49.556;10.956;2022-09-09T04:24:31;97959.31;;;12.91;100.00
20156;BME280;10238;49.556;10.956;2022-09-09T04:27:23;97954.16;;;12.90;100.00
20156;BME280;10238;49.556;10.956;2022-09-09T04:30:13;97968.16;;;12.92;100.00
20156;BME280;10238;49.556;10.956;2022-09-09T04:33:06;97964.09;;;12.96;100.00
20156;BME280;10238;49.556;10.956;2022-09-09T04:35:57;97956.44;;;13.01;100.00
20156;BME280;10238;49.556;10.956;2022-09-09T04:38:47;97961.41;;;13.04;100.00
20156;BME280;10238;49.556;10.956;2022-09-09T04:41:37;97961.06;;;13.07;100.00
20156;BME280;10238;49.556;10.956;2022-09-09T04:44:28;97962.72;;;13.08;100.00
20156;BME280;10238;49.556;10.956;2022-09-09T04:47:18;97958.75;;;13.04;100.00
20156;BME280;10238;49.556;10.956;2022-09-09T04:50:10;97960.41;;;12.97;100.00
20156;BME280;10238;49.556;10.956;2022-09-09T04:53:01;97968.09;;;13.00;100.00
20156;BME280;10238;49.556;10.956;2022-09-09T04:55:51;97965.91;;;13.03;100.00
20156;BME280;10238;49.556;10.956;2022-09-09T04:58:42;97972.53;;;13.07;100.00
20156;BME280;10238;49.556;10.956;2022-09-09T05:01:32;97972.19;;;13.11;100.00
20156;BME280;10238;49.556;10.956;2022-09-09T05:04:22;97976.31;;;13.13;100.00
20156;BME280;10238;49.556;10.956;2022-09-09T05:07:13;97981.66;;;13.13;100.00
20156;BME280;10238;49.556;10.956;2022-09-09T05:10:04;97985.34;;;13.12;100.00
20156;BME280;10238;49.556;10.956;2022-09-09T05:12:54;97992.06;;;13.08;100.00
20156;BME280;10238;49.556;10.956;2022-09-09T05:15:52;97993.53;;;13.11;100.00
20156;BME280;10238;49.556;10.956;2022-09-09T05:18:43;97997.66;;;13.13;100.00
20156;BME280;10238;49.556;10.956;2022-09-09T05:21:34;98004.34;;;13.17;100.00
20156;BME280;10238;49.556;10.956;2022-09-09T05:24:25;97991.44;;;13.21;100.00
20156;BME280;10238;49.556;10.956;2022-09-09T05:27:14;97994.94;;;13.21;100.00
20156;BME280;10238;49.556;10.956;2022-09-09T05:30:07;97997.91;;;13.26;100.00
20156;BME280;10238;49.556;10.956;2022-09-09T05:32:57;98000.28;;;13.21;100.00
20156;BME280;10238;49.556;10.956;2022-09-09T05:35:47;97992.19;;;13.29;100.00
20156;BME280;10238;49.556;10.956;2022-09-09T05:38:37;97991.84;;;13.32;100.00
20156;BME280;10238;49.556;10.956;2022-09-09T05:41:28;98004.47;;;13.38;100.00
20156;BME280;10238;49.556;10.956;2022-09-09T05:44:21;98001.06;;;13.44;100.00
20156;BME280;10238;49.556;10.956;2022-09-09T05:47:13;98000.53;;;13.49;100.00
20156;BME280;10238;49.556;10.956;2022-09-09T05:50:04;98009.03;;;13.52;100.00
20156;BME280;10238;49.556;10.956;2022-09-09T05:52:55;98011.34;;;13.55;100.00
20156;BME280;10238;49.556;10.956;2022-09-09T05:55:45;98006.63;;;13.57;100.00
20156;BME280;10238;49.556;10.956;2022-09-09T05:58:38;97999.94;;;13.61;100.00
20156;BME280;10238;49.556;10.956;2022-09-09T06:01:30;97998.38;;;13.67;100.00
20156;BME280;10238;49.556;10.956;2022-09-09T06:04:20;98008.31;;;13.73;100.00
20156;BME280;10238;49.556;10.956;2022-09-09T06:07:13;98003.41;;;13.76;100.00
20156;BME280;10238;49.556;10.956;2022-09-09T06:10:04;98009.88;;;13.82;100.00
20156;BME280;10238;49.556;10.956;2022-09-09T06:12:54;98009.97;;;13.88;100.00
20156;BME280;10238;49.556;10.956;2022-09-09T06:15:51;98003.72;;;13.96;100.00
20156;BME280;10238;49.556;10.956;2022-09-09T06:18:42;97996.81;;;14.01;100.00
20156;BME280;10238;49.556;10.956;2022-09-09T06:21:34;97998.56;;;14.09;100.00
20156;BME280;10238;49.556;10.956;2022-09-09T06:24:25;97992.28;;;14.16;100.00
20156;BME280;10238;49.556;10.956;2022-09-09T06:27:15;97990.19;;;14.26;100.00
20156;BME280;10238;49.556;10.956;2022-09-09T06:30:07;97997.09;;;14.35;100.00
20156;BME280;10238;49.556;10.956;2022-09-09T06:33:06;97987.28;;;14.42;100.00
20156;BME280;10238;49.556;10.956;2022-09-09T06:35:58;97985.91;;;14.46;100.00
20156;BME280;10238;49.556;10.956;2022-09-09T06:38:48;97982.84;;;14.49;100.00
20156;BME280;10238;49.556;10.956;2022-09-09T06:41:39;97980.44;;;14.54;100.00
20156;BME280;10238;49.556;10.956;2022-09-09T06:44:31;97984.47;;;14.65;100.00
20156;BME280;10238;49.556;10.956;2022-09-09T06:47:23;97997.16;;;14.77;100.00
20156;BME280;10238;49.556;10.956;2022-09-09T06:50:18;97994.56;;;14.84;100.00
20156;BME280;10238;49.556;10.956;2022-09-09T06:53:10;97997.56;;;14.95;100.00
20156;BME280;10238;49.556;10.956;2022-09-09T06:56:02;97998.31;;;15.10;100.00
20156;BME280;10238;49.556;10.956;2022-09-09T06:58:54;97991.88;;;15.26;100.00
20156;BME280;10238;49.556;10.956;2022-09-09T07:01:44;97989.97;;;15.41;100.00
20156;BME280;10238;49.556;10.956;2022-09-09T07:04:39;97991.09;;;15.53;100.00
20156;BME280;10238;49.556;10.956;2022-09-09T07:07:32;97985.34;;;15.56;100.00
20156;BME280;10238;49.556;10.956;2022-09-09T07:10:22;97989.47;;;15.59;100.00
20156;BME280;10238;49.556;10.956;2022-09-09T07:13:13;97982.09;;;15.61;100.00
20156;BME280;10238;49.556;10.956;2022-09-09T07:16:05;97981.94;;;15.69;100.00
20156;BME280;10238;49.556;10.956;2022-09-09T07:18:56;97976.81;;;15.74;100.00
20156;BME280;10238;49.556;10.956;2022-09-09T07:21:48;97980.56;;;15.79;100.00
20156;BME280;10238;49.556;10.956;2022-09-09T07:24:40;97991.59;;;15.91;100.00
20156;BME280;10238;49.556;10.956;2022-09-09T07:27:30;97990.38;;;16.00;100.00
20156;BME280;10238;49.556;10.956;2022-09-09T07:30:20;97987.16;;;16.11;100.00
20156;BME280;10238;49.556;10.956;2022-09-09T07:33:15;97986.78;;;16.20;100.00
20156;BME280;10238;49.556;10.956;2022-09-09T07:36:09;97979.00;;;16.32;100.00
20156;BME280;10238;49.556;10.956;2022-09-09T07:39:02;97977.78;;;16.41;100.00
20156;BME280;10238;49.556;10.956;2022-09-09T07:41:53;97973.75;;;16.51;100.00
20156;BME280;10238;49.556;10.956;2022-09-09T07:44:43;97983.06;;;16.62;100.00
20156;BME280;10238;49.556;10.956;2022-09-09T07:47:32;97981.66;;;16.79;100.00
20156;BME280;10238;49.556;10.956;2022-09-09T07:50:24;97976.75;;;17.02;100.00
20156;BME280;10238;49.556;10.956;2022-09-09T07:53:13;97969.78;;;17.20;100.00
20156;BME280;10238;49.556;10.956;2022-09-09T07:56:05;97971.00;;;17.24;100.00
20156;BME280;10238;49.556;10.956;2022-09-09T07:58:58;97974.72;;;17.30;100.00
20156;BME280;10238;49.556;10.956;2022-09-09T08:01:51;97977.63;;;17.35;100.00
20156;BME280;10238;49.556;10.956;2022-09-09T08:04:43;97971.44;;;17.41;100.00
20156;BME280;10238;49.556;10.956;2022-09-09T08:07:33;97977.44;;;17.69;100.00
20156;BME280;10238;49.556;10.956;2022-09-09T08:10:23;97975.72;;;18.01;100.00
20156;BME280;10238;49.556;10.956;2022-09-09T08:13:13;97977.13;;;18.16;100.00
20156;BME280;10238;49.556;10.956;2022-09-09T08:16:11;97974.63;;;18.21;100.00
20156;BME280;10238;49.556;10.956;2022-09-09T08:19:06;97969.44;;;18.39;100.00
20156;BME280;10238;49.556;10.956;2022-09-09T08:21:56;97969.75;;;18.62;100.00
20156;BME280;10238;49.556;10.956;2022-09-09T08:24:46;97976.47;;;18.84;100.00
20156;BME280;10238;49.556;10.956;2022-09-09T08:27:36;97965.53;;;19.04;100.00
20156;BME280;10238;49.556;10.956;2022-09-09T08:30:26;97966.66;;;19.27;100.00
20156;BME280;10238;49.556;10.956;2022-09-09T08:33:18;97965.25;;;19.50;100.00
20156;BME280;10238;49.556;10.956;2022-09-09T08:36:14;97957.97;;;19.75;100.00
20156;BME280;10238;49.556;10.956;2022-09-09T08:39:06;97957.69;;;20.01;100.00
20156;BME280;10238;49.556;10.956;2022-09-09T08:42:28;97966.72;;;20.13;100.00
20156;BME280;10238;49.556;10.956;2022-09-09T08:45:34;97969.88;;;20.46;100.00
20156;BME280;10238;49.556;10.956;2022-09-09T08:48:46;97963.09;;;20.73;100.00
20156;BME280;10238;49.556;10.956;2022-09-09T08:51:40;97957.34;;;20.99;100.00
20156;BME280;10238;49.556;10.956;2022-09-09T08:54:34;97956.47;;;21.28;100.00
20156;BME280;10238;49.556;10.956;2022-09-09T08:57:39;97959.00;;;21.64;100.00
20156;BME280;10238;49.556;10.956;2022-09-09T09:00:45;97951.16;;;21.97;94.88
20156;BME280;10238;49.556;10.956;2022-09-09T09:03:52;97950.03;;;22.33;95.07
20156;BME280;10238;49.556;10.956;2022-09-09T09:06:55;97953.19;;;22.64;89.21
20156;BME280;10238;49.556;10.956;2022-09-09T09:09:57;97954.00;;;22.93;87.56
20156;BME280;10238;49.556;10.956;2022-09-09T09:12:50;97954.69;;;23.16;86.51
20156;BME280;10238;49.556;10.956;2022-09-09T09:15:42;97956.16;;;23.36;84.53
20156;BME280;10238;49.556;10.956;2022-09-09T09:18:33;97967.69;;;23.76;81.00
20156;BME280;10238;49.556;10.956;2022-09-09T09:21:35;97953.38;;;23.97;76.73
20156;BME280;10238;49.556;10.956;2022-09-09T09:24:42;97958.75;;;24.30;79.27
20156;BME280;10238;49.556;10.956;2022-09-09T09:27:41;97962.72;;;24.44;72.56
20156;BME280;10238;49.556;10.956;2022-09-09T09:30:40;97947.75;;;24.63;69.79
20156;BME280;10238;49.556;10.956;2022-09-09T09:33:41;97936.03;;;24.62;69.88
20156;BME280;10238;49.556;10.956;2022-09-09T09:36:41;97929.72;;;25.00;75.02
20156;BME280;10238;49.556;10.956;2022-09-09T09:39:35;97927.91;;;25.37;73.01
20156;BME280;10238;49.556;10.956;2022-09-09T09:42:51;97928.75;;;25.74;66.53
20156;BME280;10238;49.556;10.956;2022-09-09T09:45:43;97926.09;;;25.79;65.01
20156;BME280;10238;49.556;10.956;2022-09-09T09:49:02;97925.16;;;26.00;65.09
20156;BME280;10238;49.556;10.956;2022-09-09T09:52:01;97926.59;;;26.18;63.29
20156;BME280;10238;49.556;10.956;2022-09-09T09:54:52;97924.56;;;26.45;64.53
20156;BME280;10238;49.556;10.956;2022-09-09T09:57:42;97926.63;;;26.79;62.64
20156;BME280;10238;49.556;10.956;2022-09-09T10:00:33;97919.03;;;26.91;60.28
20156;BME280;10238;49.556;10.956;2022-09-09T10:03:28;97923.44;;;27.12;60.23
20156;BME280;10238;49.556;10.956;2022-09-09T10:06:29;97916.94;;;27.28;62.79
20156;BME280;10238;49.556;10.956;2022-09-09T10:09:25;97910.94;;;27.37;58.31
20156;BME280;10238;49.556;10.956;2022-09-09T10:12:36;97909.31;;;27.56;61.25
20156;BME280;10238;49.556;10.956;2022-09-09T10:15:45;97900.25;;;27.80;62.06
20156;BME280;10238;49.556;10.956;2022-09-09T10:18:58;97901.63;;;27.78;57.25
20156;BME280;10238;49.556;10.956;2022-09-09T10:22:11;97896.19;;;27.48;56.39
20156;BME280;10238;49.556;10.956;2022-09-09T10:25:26;97901.63;;;27.73;62.35
20156;BME280;10238;49.556;10.956;2022-09-09T10:28:37;97894.25;;;27.93;57.30
20156;BME280;10238;49.556;10.956;2022-09-09T10:31:45;97893.41;;;28.08;53.21
20156;BME280;10238;49.556;10.956;2022-09-09T10:34:56;97889.03;;;28.02;53.35
20156;BME280;10238;49.556;10.956;2022-09-09T10:38:12;97884.16;;;27.84;56.59
20156;BME280;10238;49.556;10.956;2022-09-09T10:41:32;97881.38;;;27.99;58.99
20156;BME280;10238;49.556;10.956;2022-09-09T10:44:53;97878.69;;;27.69;57.37
20156;BME280;10238;49.556;10.956;2022-09-09T10:47:59;97881.44;;;27.69;57.38
20156;BME280;10238;49.556;10.956;2022-09-09T10:51:02;97887.16;;;27.62;56.00
20156;BME280;10238;49.556;10.956;2022-09-09T10:54:17;97885.28;;;27.58;55.63
20156;BME280;10238;49.556;10.956;2022-09-09T10:57:21;97883.09;;;27.65;56.31
20156;BME280;10238;49.556;10.956;2022-09-09T11:00:19;97880.34;;;27.65;53.79
20156;BME280;10238;49.556;10.956;2022-09-09T11:03:20;97890.16;;;27.66;54.93
20156;BME280;10238;49.556;10.956;2022-09-09T11:06:16;97883.91;;;27.40;53.44
20156;BME280;10238;49.556;10.956;2022-09-09T11:09:22;97877.09;;;27.43;54.08
20156;BME280;10238;49.556;10.956;2022-09-09T11:12:23;97882.22;;;27.74;55.09
20156;BME280;10238;49.556;10.956;2022-09-09T11:15:22;97881.38;;;28.04;52.88
20156;BME280;10238;49.556;10.956;2022-09-09T11:18:21;97869.09;;;27.81;52.74
20156;BME280;10238;49.556;10.956;2022-09-09T11:21:20;97867.78;;;27.69;53.43
20156;BME280;10238;49.556;10.956;2022-09-09T11:24:21;97875.97;;;27.59;50.76
20156;BME280;10238;49.556;10.956;2022-09-09T11:27:20;97875.69;;;27.55;49.23
20156;BME280;10238;49.556;10.956;2022-09-09T11:30:20;97865.06;;;27.49;52.61
20156;BME280;10238;49.556;10.956;2022-09-09T11:33:51;97861.22;;;27.75;52.95
20156;BME280;10238;49.556;10.956;2022-09-09T11:37:17;97857.41;;;27.71;51.81
20156;BME280;10238;49.556;10.956;2022-09-09T11:40:21;97853.53;;;27.92;52.92
20156;BME280;10238;49.556;10.956;2022-09-09T11:43:21;97854.47;;;28.36;52.20
20156;BME280;10238;49.556;10.956;2022-09-09T11:46:15;97858.94;;;28.17;48.52
20156;BME280;10238;49.556;10.956;2022-09-09T11:49:26;97854.53;;;28.21;47.71
20156;BME280;10238;49.556;10.956;2022-09-09T11:52:24;97852.91;;;28.20;51.57
20156;BME280;10238;49.556;10.956;2022-09-09T11:55:27;97849.69;;;28.03;49.66
20156;BME280;10238;49.556;10.956;2022-09-09T11:58:22;97861.19;;;27.70;47.84
20156;BME280;10238;49.556;10.956;2022-09-09T12:01:37;97860.63;;;27.83;48.49
20156;BME280;10238;49.556;10.956;2022-09-09T12:04:38;97858.97;;;28.07;46.18
20156;BME280;10238;49.556;10.956;2022-09-09T12:07:36;97850.28;;;27.70;45.19
20156;BME280;10238;49.556;10.956;2022-09-09T12:10:34;97852.78;;;27.26;48.22
20156;BME280;10238;49.556;10.956;2022-09-09T12:13:29;97853.56;;;26.91;45.94
20156;BME280;10238;49.556;10.956;2022-09-09T12:16:31;97856.81;;;26.93;48.55
20156;BME280;10238;49.556;10.956;2022-09-09T12:19:23;97840.50;;;27.39;49.93
20156;BME280;10238;49.556;10.956;2022-09-09T12:22:27;97838.28;;;27.51;46.36
20156;BME280;10238;49.556;10.956;2022-09-09T12:25:53;97841.28;;;27.69;46.49
20156;BME280;10238;49.556;10.956;2022-09-09T12:29:04;97842.06;;;27.95;48.58
20156;BME280;10238;49.556;10.956;2022-09-09T12:32:05;97836.00;;;28.08;46.96
20156;BME280;10238;49.556;10.956;2022-09-09T12:35:00;97831.63;;;28.07;44.19
20156;BME280;10238;49.556;10.956;2022-09-09T12:37:56;97841.81;;;27.86;44.45
20156;BME280;10238;49.556;10.956;2022-09-09T12:40:55;97862.25;;;28.04;47.71
20156;BME280;10238;49.556;10.956;2022-09-09T12:43:46;97871.63;;;28.61;47.00
20156;BME280;10238;49.556;10.956;2022-09-09T12:46:42;97876.13;;;28.86;46.73
20156;BME280;10238;49.556;10.956;2022-09-09T12:49:37;97896.19;;;28.71;46.50
20156;BME280;10238;49.556;10.956;2022-09-09T12:52:34;97899.66;;;28.23;48.41
20156;BME280;10238;49.556;10.956;2022-09-09T12:55:29;97927.63;;;27.85;50.79
20156;BME280;10238;49.556;10.956;2022-09-09T12:58:21;97950.19;;;27.15;53.87
20156;BME280;10238;49.556;10.956;2022-09-09T13:01:23;97990.53;;;26.47;58.18
20156;BME280;10238;49.556;10.956;2022-09-09T13:04:21;97973.94;;;25.70;62.40
20156;BME280;10238;49.556;10.956;2022-09-09T13:10:04;97960.69;;;24.99;66.36
20156;BME280;10238;49.556;10.956;2022-09-09T13:12:55;97955.00;;;24.74;69.39
20156;BME280;10238;49.556;10.956;2022-09-09T13:15:51;97935.44;;;24.34;71.91
20156;BME280;10238;49.556;10.956;2022-09-09T13:18:41;97915.44;;;24.02;75.72
20156;BME280;10238;49.556;10.956;2022-09-09T13:21:34;97900.38;;;23.78;80.83
20156;BME280;10238;49.556;10.956;2022-09-09T13:24:31;97911.31;;;23.83;80.60
20156;BME280;10238;49.556;10.956;2022-09-09T13:27:28;97898.38;;;23.90;85.27
20156;BME280;10238;49.556;10.956;2022-09-09T13:30:22;97888.78;;;23.99;80.36
20156;BME280;10238;49.556;10.956;2022-09-09T13:33:23;97885.25;;;23.82;85.55
20156;BME280;10238;49.556;10.956;2022-09-09T13:36:13;97873.84;;;23.63;86.28
20156;BME280;10238;49.556;10.956;2022-09-09T13:39:04;97872.94;;;23.58;86.08
20156;BME280;10238;49.556;10.956;2022-09-09T13:41:53;97867.53;;;23.58;86.53
20156;BME280;10238;49.556;10.956;2022-09-09T13:44:46;97855.38;;;23.44;85.10
20156;BME280;10238;49.556;10.956;2022-09-09T13:47:36;97865.16;;;23.28;90.30
20156;BME280;10238;49.556;10.956;2022-09-09T13:50:28;97856.81;;;23.18;97.39
20156;BME280;10238;49.556;10.956;2022-09-09T13:53:17;97846.72;;;23.13;91.11
20156;BME280;10238;49.556;10.956;2022-09-09T13:56:08;97849.25;;;23.03;90.83
20156;BME280;10238;49.556;10.956;2022-09-09T13:58:57;97849.19;;;22.98;97.41
20156;BME280;10238;49.556;10.956;2022-09-09T14:01:47;97851.56;;;22.95;99.50
20156;BME280;10238;49.556;10.956;2022-09-09T14:04:37;97844.16;;;22.90;100.00
20156;BME280;10238;49.556;10.956;2022-09-09T14:07:28;97838.09;;;22.83;100.00
20156;BME280;10238;49.556;10.956;2022-09-09T14:10:18;97832.00;;;22.76;100.00
20156;BME280;10238;49.556;10.956;2022-09-09T14:13:08;97836.25;;;22.72;100.00
20156;BME280;10238;49.556;10.956;2022-09-09T14:15:58;97841.19;;;22.75;100.00
20156;BME280;10238;49.556;10.956;2022-09-09T14:18:47;97845.88;;;22.80;100.00
20156;BME280;10238;49.556;10.956;2022-09-09T14:21:37;97840.69;;;22.78;100.00
20156;BME280;10238;49.556;10.956;2022-09-09T14:24:26;97849.41;;;22.80;100.00
20156;BME280;10238;49.556;10.956;2022-09-09T14:27:17;97848.81;;;22.78;100.00
20156;BME280;10238;49.556;10.956;2022-09-09T14:30:09;97847.06;;;22.72;100.00
20156;BME280;10238;49.556;10.956;2022-09-09T14:32:58;97854.16;;;22.73;100.00
20156;BME280;10238;49.556;10.956;2022-09-09T14:35:48;97849.78;;;22.72;100.00
20156;BME280;10238;49.556;10.956;2022-09-09T14:38:43;97849.72;;;22.67;100.00
20156;BME280;10238;49.556;10.956;2022-09-09T14:41:33;97849.06;;;22.60;100.00
20156;BME280;10238;49.556;10.956;2022-09-09T14:44:22;97848.47;;;22.58;100.00
20156;BME280;10238;49.556;10.956;2022-09-09T14:47:13;97856.09;;;22.61;100.00
20156;BME280;10238;49.556;10.956;2022-09-09T14:50:02;97864.81;;;22.63;100.00
20156;BME280;10238;49.556;10.956;2022-09-09T14:52:52;97867.53;;;22.63;100.00
20156;BME280;10238;49.556;10.956;2022-09-09T14:55:41;97859.69;;;22.50;100.00
20156;BME280;10238;49.556;10.956;2022-09-09T14:58:31;97866.16;;;22.49;100.00
20156;BME280;10238;49.556;10.956;2022-09-09T15:01:20;97870.28;;;22.40;100.00
20156;BME280;10238;49.556;10.956;2022-09-09T15:04:12;97857.19;;;22.21;100.00
20156;BME280;10238;49.556;10.956;2022-09-09T15:07:02;97861.19;;;22.18;100.00
20156;BME280;10238;49.556;10.956;2022-09-09T15:09:51;97867.56;;;22.01;100.00
20156;BME280;10238;49.556;10.956;2022-09-09T15:12:41;97864.81;;;21.84;100.00
20156;BME280;10238;49.556;10.956;2022-09-09T15:15:30;97860.09;;;21.68;100.00